createdAt,value
2022-11-26T00:00:46.443Z,6.55
2022-11-26T00:03:14.657Z,7.78
2022-11-26T00:05:44.080Z,8.55
2022-11-26T00:08:31.105Z,8.23
2022-11-26T00:10:57.811Z,7.80
2022-11-26T00:13:27.299Z,12.25
2022-11-26T00:15:54.855Z,6.38
2022-11-26T00:18:26.797Z,6.97
2022-11-26T00:20:56.612Z,8.07
2022-11-26T00:23:25.854Z,5.63
2022-11-26T00:25:59.039Z,6.22
2022-11-26T00:28:37.421Z,7.53
2022-11-26T05:32:29.714Z,6.50
2022-11-26T05:35:00.018Z,6.80
2022-11-26T05:37:27.179Z,8.73
2022-11-26T05:39:53.884Z,8.27
2022-11-26T05:42:20.627Z,6.15
2022-11-26T05:44:47.341Z,6.47
2022-11-26T05:47:14.084Z,6.72
2022-11-26T05:49:40.863Z,5.90
2022-11-26T05:52:07.651Z,6.20
2022-11-26T05:54:34.374Z,7.95
2022-11-26T05:57:01.432Z,8.27
2022-11-26T05:59:29.193Z,9.20
2022-11-26T06:01:56.009Z,6.55
2022-11-26T06:04:23.126Z,7.25
2022-11-26T06:06:49.833Z,9.15
2022-11-26T06:09:16.712Z,9.45
2022-11-26T06:11:43.423Z,8.48
2022-11-26T06:14:10.623Z,6.28
2022-11-26T06:16:37.791Z,5.85
2022-11-26T06:19:04.576Z,7.53
2022-11-26T06:21:31.349Z,5.47
2022-11-26T06:23:59.686Z,8.05
2022-11-26T06:26:26.840Z,6.53
2022-11-26T06:28:53.603Z,6.00
2022-11-26T06:31:20.421Z,6.28
2022-11-26T06:33:47.677Z,5.97
2022-11-26T06:36:14.401Z,6.95
2022-11-26T06:38:41.121Z,10.73
2022-11-26T06:41:08.991Z,5.93
2022-11-26T06:43:36.159Z,7.57
2022-11-26T06:46:05.351Z,8.32
2022-11-26T06:48:33.082Z,8.80
2022-11-26T06:51:14.645Z,7.50
2022-11-26T06:53:41.447Z,9.75
2022-11-26T06:56:17.817Z,5.55
2022-11-26T06:58:46.570Z,5.05
2022-11-26T07:01:24.997Z,5.55
2022-11-26T07:03:52.713Z,6.63
2022-11-26T07:06:22.146Z,5.63
2022-11-26T07:08:50.030Z,7.70
2022-11-26T07:11:17.445Z,6.50
2022-11-26T07:13:45.131Z,13.02
2022-11-26T07:16:12.971Z,6.88
2022-11-26T07:18:39.950Z,5.60
2022-11-26T07:21:16.452Z,7.40
2022-11-26T07:23:43.180Z,9.45
2022-11-26T07:26:11.611Z,8.77
2022-11-26T07:28:40.127Z,7.20
2022-11-26T07:31:17.232Z,8.40
2022-11-26T07:33:45.498Z,7.32
2022-11-26T07:36:22.589Z,9.20
2022-11-26T07:38:49.403Z,7.93
2022-11-26T07:41:18.670Z,10.63
2022-11-26T07:43:45.894Z,8.98
2022-11-26T07:46:15.982Z,8.55
2022-11-26T07:48:42.868Z,28.13
2022-11-26T07:51:23.780Z,21.88
2022-11-26T07:53:51.013Z,23.85
2022-11-26T07:56:18.519Z,15.48
2022-11-26T07:58:46.068Z,16.27
2022-11-26T08:01:19.320Z,13.85
2022-11-26T08:03:48.286Z,10.32
2022-11-26T08:06:17.468Z,13.75
2022-11-26T08:08:44.527Z,15.18
2022-11-26T08:11:16.031Z,9.35
2022-11-26T08:13:43.447Z,14.25
2022-11-26T08:16:10.585Z,12.32
2022-11-26T08:18:37.734Z,14.38
2022-11-26T08:21:05.315Z,9.07
2022-11-26T08:23:32.127Z,11.43
2022-11-26T08:26:21.626Z,8.88
2022-11-26T08:28:47.436Z,6.35
2022-11-26T08:31:16.182Z,7.45
2022-11-26T08:33:43.087Z,9.48
2022-11-26T08:36:10.941Z,8.52
2022-11-26T08:38:38.153Z,7.32
2022-11-26T08:41:10.519Z,9.20
2022-11-26T08:44:04.983Z,9.18
2022-11-26T08:46:25.917Z,11.77
2022-11-26T08:48:55.971Z,17.30
2022-11-26T08:51:22.983Z,15.75
2022-11-26T08:53:49.763Z,14.23
2022-11-26T08:56:16.498Z,13.18
2022-11-26T08:58:45.552Z,18.05
2022-11-26T09:01:21.072Z,19.23
2022-11-26T09:03:52.333Z,13.82
2022-11-26T09:06:20.440Z,10.93
2022-11-26T09:09:05.507Z,7.93
2022-11-26T09:11:35.241Z,7.55
2022-11-26T09:14:02.600Z,6.32
2022-11-26T09:16:30.054Z,6.68
2022-11-26T09:19:00.596Z,9.70
2022-11-26T09:21:27.872Z,9.23
2022-11-26T09:23:55.326Z,8.07
2022-11-26T09:26:22.792Z,8.10
2022-11-26T09:28:49.957Z,10.35
2022-11-26T09:31:17.348Z,12.90
2022-11-26T09:33:45.033Z,8.10
2022-11-26T09:36:13.870Z,8.85
2022-11-26T09:38:41.228Z,6.13
2022-11-26T09:41:35.384Z,5.78
2022-11-26T09:47:10.409Z,7.63
2022-11-26T09:49:52.931Z,7.10
2022-11-26T09:52:23.112Z,6.03
2022-11-26T09:54:55.111Z,5.95
2022-11-26T09:57:46.334Z,8.38
2022-11-26T10:00:23.690Z,9.40
2022-11-26T10:02:53.377Z,7.40
2022-11-26T10:05:22.941Z,11.02
2022-11-26T10:08:12.384Z,7.80
2022-11-26T10:11:03.809Z,5.47
2022-11-26T10:13:43.713Z,4.72
2022-11-26T10:16:43.024Z,4.47
2022-11-26T10:19:18.169Z,4.90
2022-11-26T10:22:03.556Z,5.22
2022-11-26T10:24:37.107Z,7.50
2022-11-26T10:27:15.538Z,3.97
2022-11-26T10:29:44.494Z,5.90
2022-11-26T10:32:18.499Z,7.53
2022-11-26T10:34:52.651Z,8.05
2022-11-26T10:37:25.307Z,8.82
2022-11-26T10:40:24.925Z,7.43
2022-11-26T10:43:12.633Z,8.15
2022-11-26T10:45:40.819Z,11.80
2022-11-26T10:48:30.731Z,7.38
2022-11-26T10:51:13.635Z,6.63
2022-11-26T10:53:56.846Z,7.60
2022-11-26T10:56:36.644Z,12.50
2022-11-26T10:59:17.324Z,16.80
2022-11-26T11:01:44.559Z,15.68
2022-11-26T11:04:29.279Z,15.55
2022-11-26T11:06:56.412Z,9.52
2022-11-26T11:09:35.449Z,8.82
2022-11-26T11:12:23.694Z,8.50
2022-11-26T11:14:51.666Z,9.13
2022-11-26T11:17:40.582Z,7.07
2022-11-26T11:20:26.531Z,4.57
2022-11-26T11:23:16.507Z,8.02
2022-11-26T11:25:47.437Z,7.80
2022-11-26T11:28:20.573Z,6.70
2022-11-26T11:30:56.845Z,3.75
2022-11-26T11:33:27.593Z,4.63
2022-11-26T11:36:13.248Z,5.22
2022-11-26T11:38:53.617Z,4.22
2022-11-26T11:41:42.048Z,4.13
2022-11-26T11:44:35.625Z,5.65
2022-11-26T11:49:54.909Z,4.97
2022-11-26T11:52:27.785Z,4.38
2022-11-26T11:55:05.312Z,4.20
2022-11-26T11:57:55.968Z,5.35
2022-11-26T12:00:48.781Z,5.18
2022-11-26T12:04:07.192Z,6.97
2022-11-26T12:06:41.680Z,5.43
2022-11-26T12:09:16.608Z,5.78
2022-11-26T12:12:12.065Z,5.80
2022-11-26T12:14:47.863Z,7.88
2022-11-26T12:17:33.059Z,7.75
2022-11-26T12:20:26.459Z,5.45
2022-11-26T12:23:13.090Z,8.43
2022-11-26T12:25:41.839Z,6.18
2022-11-26T12:28:19.908Z,7.68
2022-11-26T12:30:58.982Z,6.47
2022-11-26T12:33:35.692Z,7.38
2022-11-26T12:36:14.709Z,9.30
2022-11-26T12:38:54.336Z,9.55
2022-11-26T12:41:41.058Z,9.15
2022-11-26T12:44:28.441Z,7.90
2022-11-26T12:47:01.788Z,8.00
2022-11-26T12:49:55.315Z,7.03
2022-11-26T12:52:46.789Z,7.85
2022-11-26T12:55:38.823Z,6.40
2022-11-26T12:58:15.459Z,8.95
2022-11-26T13:00:42.432Z,9.30
2022-11-26T13:03:18.213Z,7.25
2022-11-26T13:06:05.182Z,9.52
2022-11-26T13:08:55.117Z,11.27
2022-11-26T13:11:26.482Z,8.07
2022-11-26T13:14:11.409Z,9.55
2022-11-26T13:16:49.497Z,7.35
2022-11-26T13:19:36.204Z,10.63
2022-11-26T13:22:08.448Z,8.10
2022-11-26T13:25:01.637Z,9.18
2022-11-26T13:27:49.627Z,8.70
2022-11-26T13:30:45.875Z,11.75
2022-11-26T13:33:45.890Z,8.15
2022-11-26T13:36:28.759Z,8.30
2022-11-26T13:39:05.244Z,12.18
2022-11-26T13:41:45.436Z,10.30
2022-11-26T13:44:36.759Z,10.93
2022-11-26T13:47:13.078Z,10.80
2022-11-26T13:49:55.156Z,9.27
2022-11-26T13:52:28.127Z,9.57
2022-11-26T13:55:07.424Z,8.07
2022-11-26T13:57:41.277Z,6.93
2022-11-26T14:00:09.045Z,6.65
2022-11-26T14:02:37.148Z,8.20
2022-11-26T14:05:10.318Z,6.40
2022-11-26T14:07:37.702Z,7.85
2022-11-26T14:10:34.091Z,10.02
2022-11-26T14:13:03.930Z,7.18
2022-11-26T14:15:42.831Z,8.75
2022-11-26T14:18:14.917Z,7.05
2022-11-26T14:21:00.592Z,6.82
2022-11-26T14:23:47.437Z,9.75
2022-11-26T14:26:19.290Z,6.90
2022-11-26T14:28:46.149Z,7.60
2022-11-26T14:31:22.592Z,7.57
2022-11-26T14:33:52.781Z,7.10
2022-11-26T14:36:26.240Z,6.82
2022-11-26T14:39:09.496Z,7.05
2022-11-26T14:41:52.153Z,6.50
2022-11-26T14:44:20.366Z,6.97
2022-11-26T14:46:50.910Z,45.33
2022-11-26T14:49:20.874Z,8.55
2022-11-26T14:51:53.466Z,6.38
2022-11-26T14:54:29.095Z,7.85
2022-11-26T14:56:59.017Z,9.23
2022-11-26T14:59:25.753Z,6.55
2022-11-26T15:01:52.519Z,5.10
2022-11-26T15:04:26.204Z,6.55
2022-11-26T15:09:24.451Z,8.23
2022-11-26T15:12:15.071Z,7.05
2022-11-26T15:14:50.311Z,6.00
2022-11-26T15:17:19.488Z,6.00
2022-11-26T15:19:47.692Z,8.88
2022-11-26T15:22:30.997Z,10.02
2022-11-26T15:24:57.998Z,8.32
2022-11-26T15:27:34.667Z,6.85
2022-11-26T15:30:01.402Z,7.20
2022-11-26T15:32:31.119Z,4.75
2022-11-26T15:35:01.500Z,7.25
2022-11-26T15:37:28.453Z,6.78
2022-11-26T15:40:10.115Z,6.88
2022-11-26T15:42:39.257Z,5.47
2022-11-26T15:45:22.707Z,6.82
2022-11-26T15:47:52.486Z,6.43
2022-11-26T15:50:32.229Z,6.80
2022-11-26T15:53:04.102Z,6.53
2022-11-26T15:55:35.204Z,5.32
2022-11-26T15:58:06.068Z,7.90
2022-11-26T16:00:41.253Z,6.75
2022-11-26T16:03:42.064Z,8.60
2022-11-26T16:06:34.314Z,6.35
2022-11-26T16:09:10.684Z,7.72
2022-11-26T16:11:44.217Z,6.82
2022-11-26T16:14:30.790Z,8.15
2022-11-26T16:17:06.592Z,13.35
2022-11-26T16:19:35.926Z,6.70
2022-11-26T16:22:05.893Z,8.23
2022-11-26T16:24:40.065Z,7.15
2022-11-26T16:27:23.459Z,9.05
2022-11-26T16:29:50.160Z,8.75
2022-11-26T16:32:18.229Z,9.65
2022-11-26T16:34:45.202Z,11.30
2022-11-26T16:37:28.462Z,9.55
2022-11-26T16:40:14.081Z,10.02
2022-11-26T16:42:40.843Z,8.95
2022-11-26T16:45:09.049Z,8.20
2022-11-26T16:47:39.471Z,16.48
2022-11-26T16:50:13.356Z,40.17
2022-11-26T16:52:41.632Z,16.88
2022-11-26T16:55:15.965Z,10.10
2022-11-26T16:57:46.691Z,11.52
2022-11-26T17:00:22.852Z,10.40
2022-11-26T17:02:50.291Z,9.48
2022-11-26T17:05:17.701Z,15.35
2022-11-26T17:07:47.444Z,15.15
2022-11-26T17:10:17.244Z,11.57
2022-11-26T17:12:44.602Z,9.90
2022-11-26T17:15:12.332Z,9.05
2022-11-26T17:17:39.841Z,10.73
2022-11-26T17:20:17.557Z,16.70
2022-11-26T17:22:45.384Z,11.73
2022-11-26T17:25:13.204Z,14.13
2022-11-26T17:27:40.509Z,12.98
2022-11-26T17:30:12.450Z,15.48
2022-11-26T17:32:39.177Z,27.00
2022-11-26T17:35:06.075Z,21.13
2022-11-26T17:37:34.101Z,12.98
2022-11-26T17:40:00.802Z,9.75
2022-11-26T17:42:29.985Z,14.40
2022-11-26T17:44:59.080Z,13.10
2022-11-26T17:47:27.376Z,12.73
2022-11-26T17:49:54.556Z,14.05
2022-11-26T17:52:22.894Z,10.27
2022-11-26T17:54:49.737Z,8.90
2022-11-26T17:57:17.265Z,11.52
2022-11-26T17:59:44.418Z,14.15
2022-11-26T18:02:11.734Z,16.75
2022-11-26T18:04:38.476Z,14.20
2022-11-26T18:07:18.138Z,17.33
2022-11-26T18:09:45.808Z,13.70
2022-11-26T18:12:24.835Z,11.82
2022-11-26T18:14:53.819Z,14.35
2022-11-26T18:17:20.789Z,15.68
2022-11-26T18:19:47.697Z,15.43
2022-11-26T18:22:20.794Z,13.98
2022-11-26T18:24:56.555Z,11.35
2022-11-26T18:27:26.438Z,12.15
2022-11-26T18:29:53.295Z,10.40
2022-11-26T18:32:20.221Z,15.40
2022-11-26T18:34:50.522Z,17.73
2022-11-26T18:37:18.199Z,43.35
2022-11-26T18:39:45.329Z,31.52
2022-11-26T18:42:36.134Z,19.38
2022-11-26T18:44:59.968Z,12.70
2022-11-26T18:47:26.696Z,12.65
2022-11-26T18:49:53.490Z,21.48
2022-11-26T18:52:20.222Z,20.25
2022-11-26T18:54:46.983Z,14.60
2022-11-26T18:57:13.790Z,16.00
2022-11-26T18:59:40.817Z,18.10
2022-11-26T19:02:10.365Z,13.30
2022-11-26T19:04:38.278Z,14.52
2022-11-26T19:07:05.000Z,16.25
2022-11-26T19:09:31.735Z,15.27
2022-11-26T19:11:58.442Z,17.35
2022-11-26T19:14:25.272Z,20.38
2022-11-26T19:16:52.376Z,22.27
2022-11-26T19:19:19.554Z,18.65
2022-11-26T19:21:46.333Z,18.23
2022-11-26T19:24:13.450Z,18.70
2022-11-26T19:26:43.489Z,16.77
2022-11-26T19:29:12.182Z,18.10
2022-11-26T19:31:39.925Z,19.13
2022-11-26T19:34:11.584Z,17.25
2022-11-26T19:36:41.072Z,18.95
2022-11-26T19:39:08.607Z,15.48
2022-11-26T19:41:35.568Z,15.68
2022-11-26T19:44:05.303Z,17.27
2022-11-26T19:46:32.762Z,16.92
2022-11-26T19:48:59.563Z,16.20
2022-11-26T19:51:27.723Z,12.95
2022-11-26T19:53:55.560Z,16.00
2022-11-26T19:56:27.987Z,17.35
2022-11-26T19:58:57.755Z,16.02
2022-11-26T20:01:27.276Z,15.18
2022-11-26T20:03:54.089Z,15.55
2022-11-26T20:06:26.800Z,17.15
2022-11-26T20:08:54.797Z,14.47
2022-11-26T20:11:22.320Z,13.38
2022-11-26T20:13:49.940Z,16.73
2022-11-26T20:16:28.022Z,19.02
2022-11-26T20:18:55.345Z,17.20
2022-11-26T20:21:25.893Z,13.02
2022-11-26T20:23:54.416Z,13.30
2022-11-26T20:26:25.265Z,12.98
2022-11-26T20:28:53.062Z,16.48
2022-11-26T20:31:23.595Z,14.05
2022-11-26T20:33:53.133Z,13.18
2022-11-26T20:36:22.565Z,15.02
2022-11-26T20:38:53.912Z,12.02
2022-11-26T20:41:21.571Z,11.27
2022-11-26T20:43:51.345Z,11.90
2022-11-26T20:46:22.518Z,12.10
2022-11-26T20:48:49.904Z,11.32
2022-11-26T20:51:18.806Z,14.65
2022-11-26T20:53:51.758Z,14.52
2022-11-26T20:56:20.932Z,13.27
2022-11-26T20:58:48.540Z,11.55
2022-11-26T21:01:27.438Z,11.07
2022-11-26T21:03:55.140Z,10.40
2022-11-26T21:06:29.639Z,15.68
2022-11-26T21:09:01.958Z,14.40
2022-11-26T21:11:29.976Z,16.55
2022-11-26T21:13:58.440Z,14.45
2022-11-26T21:16:25.784Z,11.88
2022-11-26T21:18:54.290Z,11.23
2022-11-26T21:21:21.631Z,9.13
2022-11-26T21:23:48.386Z,14.63
2022-11-26T21:26:20.678Z,15.85
2022-11-26T21:28:51.859Z,16.02
2022-11-26T21:31:19.699Z,17.77
2022-11-26T21:33:47.847Z,21.55
2022-11-26T21:36:16.124Z,16.98
2022-11-26T21:38:43.333Z,15.77
2022-11-26T21:41:13.758Z,15.32
2022-11-26T21:43:41.266Z,17.40
2022-11-26T21:46:10.969Z,14.70
2022-11-26T21:48:37.925Z,16.52
2022-11-26T21:51:15.112Z,14.75
2022-11-26T21:53:42.114Z,12.30
2022-11-26T21:56:16.039Z,15.65
2022-11-26T21:58:43.123Z,13.70
2022-11-26T22:01:19.385Z,14.13
2022-11-26T22:03:48.727Z,15.20
2022-11-26T22:06:16.246Z,13.77
2022-11-26T22:08:43.521Z,15.07
2022-11-26T22:11:29.935Z,16.65
2022-11-26T22:13:57.030Z,16.13
2022-11-26T22:16:26.236Z,13.68
2022-11-26T22:18:54.208Z,15.80
2022-11-26T22:21:22.302Z,11.98
2022-11-26T22:23:50.280Z,12.25
2022-11-26T22:26:18.376Z,9.77
2022-11-26T22:28:45.383Z,11.75
2022-11-26T22:31:18.790Z,10.70
2022-11-26T22:33:46.183Z,10.73
2022-11-26T22:36:13.547Z,11.10
2022-11-26T22:38:41.656Z,12.52
2022-11-26T22:41:11.693Z,13.00
2022-11-26T22:43:39.334Z,8.50
2022-11-26T22:46:17.763Z,12.25
2022-11-26T22:48:52.366Z,9.45
2022-11-26T22:51:20.219Z,8.63
2022-11-26T22:53:55.522Z,11.77
2022-11-26T22:56:22.882Z,7.82
2022-11-26T22:58:49.730Z,10.10
2022-11-26T23:01:38.794Z,9.32
2022-11-26T23:04:08.011Z,8.70
2022-11-26T23:06:35.654Z,7.65
2022-11-26T23:09:04.773Z,8.63
2022-11-26T23:11:34.095Z,9.80
2022-11-26T23:14:06.991Z,9.10
2022-11-26T23:16:34.566Z,9.10
2022-11-26T23:19:01.839Z,9.60
2022-11-26T23:21:31.594Z,13.05
2022-11-26T23:23:58.673Z,14.70
2022-11-26T23:26:28.693Z,11.38
2022-11-26T23:29:00.528Z,17.13
2022-11-26T23:31:34.055Z,10.15
2022-11-26T23:36:28.924Z,6.97
2022-11-26T23:38:56.488Z,9.02
2022-11-26T23:41:23.383Z,9.88
2022-11-26T23:43:50.614Z,14.05
2022-11-26T23:46:18.931Z,12.75
2022-11-26T23:48:46.432Z,12.02
2022-11-26T23:51:16.273Z,10.85
2022-11-26T23:53:44.345Z,18.95
2022-11-26T23:56:14.901Z,10.55
2022-11-26T23:58:42.154Z,18.60
